Time;durP1;ratioP1;P1;durP2;ratioP2;P2;SDS_P1;SDS_P2;PMS_P1;PMS_P2;Temp;Humidity;BMP_temperature;BMP_pressure;BME280_temperature;BME280_humidity;BME280_pressure;Samples;Min_cycle;Max_cycle;Signal;HPM_P1;HPM_P2
2021/05/11 00:01:09;;;;;;;5.33;4.83;;;;;;;13.39;52.99;94675.09;829167;71;30094;-77
2021/05/11 00:16:15;;;;;;;4.80;4.40;;;;;;;13.23;53.05;94677.28;827323;71;32635;-80
2021/05/11 00:31:09;;;;;;;4.70;4.30;;;;;;;13.36;53.36;94673.84;834157;71;30038;-80
2021/05/11 00:46:13;;;;;;;5.90;5.40;;;;;;;13.42;55.62;94661.30;829814;71;32120;-79
2021/05/11 01:01:16;;;;;;;6.90;6.30;;;;;;;13.42;58.19;94650.23;828440;71;32738;-77
2021/05/11 01:16:10;;;;;;;10.50;7.28;;;;;;;13.33;58.85;94644.67;828214;71;29941;-80
2021/05/11 01:31:49;;;;;;;6.92;6.22;;;;;;;13.21;59.59;94643.31;828270;71;29927;-80
2021/05/11 02:31:14;;;;;;;7.55;6.85;;;;;;;12.75;60.40;94607.52;827639;71;32673;-78
2021/05/11 02:46:09;;;;;;;7.08;6.47;;;;;;;12.65;60.22;94609.59;828621;71;30250;-76
2021/05/11 03:01:42;;;;;;;8.65;7.22;;;;;;;12.52;60.37;94608.02;829296;71;29770;-78
2021/05/11 03:16:19;;;;;;;7.05;6.30;;;;;;;13.36;64.30;94600.56;835382;71;32767;-76
2021/05/11 03:31:08;;;;;;;9.00;6.67;;;;;;;17.40;55.35;94591.13;828335;71;29865;-75
2021/05/11 03:46:14;;;;;;;9.48;7.80;;;;;;;17.24;49.16;94596.27;827568;71;32735;-76
2021/05/11 04:01:08;;;;;;;8.53;7.70;;;;;;;17.62;47.96;94593.38;828487;71;29696;-78
2021/05/11 04:16:22;;;;;;;9.00;7.90;;;;;;;18.69;45.28;94593.77;827313;71;32797;-75
2021/05/11 04:31:14;;;;;;;8.10;6.90;;;;;;;19.74;42.13;94597.34;827730;71;33187;-76
2021/05/11 05:01:08;;;;;;;9.23;7.60;;;;;;;21.51;37.70;94582.61;828463;71;29761;-79
2021/05/11 05:16:12;;;;;;;8.88;8.05;;;;;;;22.60;37.35;94575.89;828576;71;32009;-76
2021/05/11 05:31:14;;;;;;;7.47;6.77;;;;;;;22.87;35.72;94576.63;834078;71;32753;-76
2021/05/11 05:46:08;;;;;;;8.90;6.43;;;;;;;23.44;34.93;94557.77;823498;71;29780;-78
2021/05/11 06:01:29;;;;;;;7.90;7.20;;;;;;;23.54;33.47;94565.13;822666;71;32721;-86
2021/05/11 06:31:51;;;;;;;8.40;7.70;;;;;;;23.38;33.45;94549.86;830013;71;30372;-82
2021/05/11 07:31:36;;;;;;;9.70;6.87;;;;;;;24.26;33.75;94519.35;803452;74;32935;-90
2021/05/11 09:31:49;;;;;;;4.50;4.10;;;;;;;27.90;25.83;94420.94;828914;71;33241;-82
2021/05/11 10:46:47;;;;;;;3.00;2.90;;;;;;;;;;827999;71;32701;-78
2021/05/11 11:01:11;;;;;;;3.00;2.47;;;;;;;;;;834624;71;30228;-76
2021/05/11 11:16:21;;;;;;;2.50;2.40;;;;;;;27.08;23.80;94344.80;828218;71;32750;-77
2021/05/11 12:16:10;;;;;;;4.23;2.47;;;;;;;;;;817918;71;30896;-78
2021/05/11 12:31:15;;;;;;;2.60;2.40;;;;;;;27.17;25.07;94265.64;833882;71;32742;-81
2021/05/11 12:46:21;;;;;;;2.70;2.60;;;;;;;26.73;27.04;94235.62;834998;71;30313;-83
2021/05/11 13:46:14;;;;;;;2.90;2.58;;;;;;;25.13;29.36;94200.34;823691;71;33258;-81
2021/05/11 14:16:14;;;;;;;5.40;2.80;;;;;;;24.78;28.59;94177.22;834248;71;32219;-80
2021/05/11 14:31:15;;;;;;;3.10;2.90;;;;;;;24.87;30.03;94162.63;828067;71;31720;-81
2021/05/11 14:46:10;;;;;;;2.63;2.50;;;;;;;24.86;28.81;94167.80;828434;71;28651;-81
2021/05/11 15:01:51;;;;;;;2.47;2.37;;;;;;;24.83;28.66;94147.11;828414;71;31773;-82
2021/05/11 15:16:20;;;;;;;2.87;2.67;;;;;;;24.72;28.61;94130.46;834275;71;31807;-83
2021/05/11 15:31:10;;;;;;;2.90;2.60;;;;;;;24.56;28.79;94121.48;828639;71;29346;-82
2021/05/11 15:46:10;;;;;;;3.60;2.80;;;;;;;24.39;29.18;94115.53;828369;71;29916;-78
2021/05/11 16:01:09;;;;;;;5.83;2.70;;;;;;;24.12;30.16;94114.59;829127;71;29234;-79
2021/05/11 16:16:14;;;;;;;4.00;3.40;;;;;;;23.75;30.96;94105.57;828619;71;31806;-81
2021/05/11 16:31:12;;;;;;;3.93;3.20;;;;;;;23.32;32.11;94098.22;829194;71;29251;-84
2021/05/11 16:46:14;;;;;;;4.33;3.60;;;;;;;22.92;33.25;94101.87;824440;71;31757;-77
2021/05/11 17:01:19;;;;;;;3.60;3.40;;;;;;;22.50;33.93;94095.92;827674;71;32137;-79
2021/05/11 17:16:10;;;;;;;4.90;3.70;;;;;;;22.08;34.97;94093.71;829221;71;28857;-78
2021/05/11 17:31:10;;;;;;;5.00;3.65;;;;;;;21.62;35.21;94091.45;828450;71;28801;-78
2021/05/11 17:46:09;;;;;;;5.50;4.05;;;;;;;21.13;35.17;94087.88;834812;71;30801;-79
2021/05/11 18:01:09;;;;;;;5.28;3.62;;;;;;;20.64;35.65;94084.27;835552;70;30395;-80
2021/05/11 18:16:12;;;;;;;6.60;3.08;;;;;;;20.18;35.84;94089.69;828300;71;29823;-83
2021/05/11 18:31:12;;;;;;;3.30;3.10;;;;;;;19.77;36.51;94093.45;828043;71;30377;-83
2021/05/11 18:46:10;;;;;;;3.10;2.90;;;;;;;19.30;36.94;94097.94;828189;71;30313;-82
2021/05/11 19:01:14;;;;;;;6.40;2.90;;;;;;;18.85;37.57;94109.22;828364;71;32945;-82
2021/05/11 19:16:09;;;;;;;3.12;2.80;;;;;;;18.39;38.60;94106.55;828035;71;30806;-79
2021/05/11 19:31:22;;;;;;;4.03;3.35;;;;;;;18.32;40.32;94114.36;824040;71;32804;-84
2021/05/11 19:46:29;;;;;;;;;;;;;;;;;;;;;
2021/05/11 20:01:19;;;;;;;5.33;3.33;;;;;;;18.10;42.58;94123.72;822568;71;32813;-82
2021/05/11 20:16:09;;;;;;;4.00;3.70;;;;;;;17.90;42.97;94112.81;829645;71;29695;-77
2021/05/11 20:31:14;;;;;;;4.00;3.70;;;;;;;17.83;43.39;94120.06;817589;71;33340;-77
2021/05/11 20:46:09;;;;;;;4.95;3.60;;;;;;;17.75;43.01;94126.28;828666;70;29898;-76
2021/05/11 21:01:50;;;;;;;4.10;3.70;;;;;;;17.86;46.95;94137.18;833701;71;32688;-76
2021/05/11 21:16:08;;;;;;;3.95;3.30;;;;;;;19.37;46.16;94139.87;828253;71;30187;-75
2021/05/11 21:31:09;;;;;;;3.87;3.52;;;;;;;18.96;40.12;94136.81;828132;71;30283;-77
2021/05/11 21:46:09;;;;;;;5.65;3.90;;;;;;;17.65;43.41;94142.14;833979;71;30411;-76
2021/05/11 22:01:08;;;;;;;3.52;3.22;;;;;;;17.36;44.17;94133.46;834306;71;29423;-76
2021/05/11 22:16:15;;;;;;;3.45;2.87;;;;;;;16.98;43.45;94122.78;827491;71;32685;-76
2021/05/11 22:31:13;;;;;;;3.52;3.22;;;;;;;17.18;44.78;94113.66;828199;71;32007;-77
2021/05/11 22:46:09;;;;;;;6.87;3.67;;;;;;;17.42;45.32;94101.59;828249;71;29766;-76
2021/05/11 23:01:16;;;;;;;4.85;3.20;;;;;;;16.90;43.89;94089.80;827587;71;33327;-77
2021/05/11 23:16:15;;;;;;;3.30;3.00;;;;;;;15.76;46.39;94089.30;834185;71;32752;-75
2021/05/11 23:31:18;;;;;;;3.45;2.98;;;;;;;15.41;49.26;94086.48;827934;71;33209;-76
2021/05/11 23:46:08;;;;;;;2.90;2.80;;;;;;;16.29;48.34;94076.15;834206;71;29347;-78
